Latest Coastal Weather Observations for Flinders Island Airport

IDV60701

Issued at 10:02 pm EDT Tuesday 17 January 2017 (issued every 10 minutes, with the page automatically refreshed every 10 minutes)

About coastal observations | Map of coastal stations | Coastal observations for VIC | Marine services | Other Formats
Station Details ID: 099005 Name: FLINDERS ISLAND AIRPORT Lat: -40.09 Lon: 148.00 Height: 9.0 m
Data from the previous 72 hours. | See also: Recent months at Flinders Island Airport
Date/Time
EDT
Temp
°C
Wind Pressure Rain since
9am
mm
Weather Cloud Vis
km
Sea
Height
m
Swell
Dir  Spd
kts
Gust
kts
hPa Trend Height
m
Period
s
Dir
17/10:00pm 18.5 SW 8 11 1005.3 - - - Mostly clear 26 - - - -
17/09:30pm 18.4 SSW 11 15 1005.5 - 0.0 - Partly cloudy 10 - - - -
17/09:00pm 17.9 WSW 1 7 1004.9 - 0.0 - Cloudy 10 - - - -
17/08:30pm 18.2 NNE 2 5 1005.2 - 0.0 - Partly cloudy 10 - - - -
17/08:00pm 19.0 NW 3 5 1005.1 - 0.0 - Partly cloudy 10 - - - -
17/07:30pm 19.6 NW 7 8 1005.3 - 0.0 - Partly cloudy 10 - - - -
17/07:00pm 20.1 NW 7 9 1005.2 - 0.0 - Partly cloudy 10 - - - -
17/06:30pm 20.9 NNW 6 8 1005.0 - 0.0 - Partly cloudy 10 - - - -
17/06:00pm 20.6 NW 6 8 1005.2 - 0.0 - Cloudy 10 - - - -
17/05:30pm 21.1 WNW 8 10 1005.8 - 0.0 - - 10 - - - -
17/05:00pm 20.8 NW 8 9 1005.5 - 0.0 - - 10 - - - -
17/04:30pm 20.6 NW 7 9 1005.9 - 0.0 - - 10 - - - -
17/04:00pm 20.6 WNW 9 12 1006.4 - 0.0 - - 10 - - - -
17/03:30pm 21.4 NW 12 16 1006.2 - 0.0 - - 10 - - - -
17/03:00pm 21.7 NW 10 13 1006.1 - 0.0 - Cloudy 10 - - - -
17/02:30pm 20.7 NW 7 9 1006.1 - 0.0 - Partly cloudy 10 - - - -
17/02:00pm 20.9 NW 9 11 1006.4 - 0.0 - - 10 - - - -
17/01:30pm 21.8 WNW 11 14 1006.6 - 0.0 - - 10 - - - -
17/01:00pm 21.2 WNW 12 16 1007.1 - 0.0 - - 10 - - - -
17/12:30pm 22.4 W 15 19 1007.2 - 0.0 - - 10 - - - -
17/12:00pm 24.6 WNW 10 13 1006.9 - 0.0 - Mostly cloudy 10 - - - -
17/11:30am 26.1 NW 11 15 1006.3 - 0.0 - - 10 - - - -
17/11:00am 26.0 NW 9 12 1006.4 - 0.0 - - 10 - - - -
17/10:30am 25.2 NW 7 10 1006.6 - 0.0 - - 10 - - - -
17/10:00am 24.7 NW 7 9 1006.8 - 0.0 - - 10 - - - -
17/09:30am 22.8 CALM 0 0 1007.4 - 0.0 - - 10 - - - -
17/09:00am 20.1 NE 7 7 1007.3 - 0.0 - Cloudy 10 - - - -
17/08:30am 18.2 NE 5 6 1008.0 - 0.0 - - 10 - - - -
17/08:00am 16.1 NE 1 5 1008.2 - 0.0 - - 10 - - - -
17/07:30am 14.8 NE 5 6 1007.7 - 0.0 - - 10 - - - -
17/07:00am 13.7 ENE 5 6 1007.6 - 0.0 - - 10 - - - -
17/06:30am 13.5 ENE 5 7 1007.7 - 0.0 - - 10 - - - -
17/06:00am 12.6 ENE 6 7 1007.5 - 0.0 - Partly cloudy 10 - - - -
17/05:30am 11.1 NE 5 6 1007.4 - 0.0 - - 10 - - - -
17/05:00am 12.0 ENE 6 6 1007.3 - 0.0 - - 10 - - - -
17/04:30am 12.9 ENE 3 4 1007.3 - 0.0 - - 10 - - - -
17/04:00am 14.0 ENE 3 4 1007.6 - 0.0 - - 10 - - - -
17/03:30am 14.1 ENE 1 4 1008.0 - 0.0 - - 10 - - - -
17/03:00am 14.5 ENE 4 5 1008.0 - 0.0 - Cloudy 10 - - - -
17/02:30am 14.6 ESE 5 5 1008.4 - 0.0 - - 10 - - - -
17/02:00am 14.4 E 4 5 1008.6 - 0.0 - - 10 - - - -
17/01:30am 14.3 E 4 5 1009.2 - 0.0 - - 10 - - - -
17/01:00am 14.2 ENE 4 4 1009.4 - 0.0 - - 10 - - - -
17/12:30am 14.2 ENE 5 6 1009.7 - 0.0 - - 10 - - - -
17/12:00am 14.3 ENE 4 6 1010.1 - 0.0 - Partly cloudy 10 - - - -
 
Date/Time
EDT
Temp
°C
Wind Pressure Rain since
9am
mm
Weather Cloud Vis
km
Sea
Height
m
Swell
Dir  Spd
kts
Gust
kts
hPa Trend Height
m
Period
s
Dir
16/11:30pm 14.4 ENE 4 4 1010.3 - 0.0 - - 10 - - - -
16/11:00pm 14.4 NE 4 6 1010.4 - 0.0 - - 10 - - - -
16/10:30pm 14.8 E 7 8 1010.8 - 0.0 - - 10 - - - -
16/10:00pm 14.3 N 3 4 1011.3 - 0.0 - - 10 - - - -
16/09:30pm 15.1 NNW 5 7 1011.2 - 0.0 - - 10 - - - -
16/09:00pm 15.5 NW 3 6 1011.3 - 0.0 - - 10 - - - -
16/08:30pm 16.3 WNW 7 9 1011.4 - 0.0 - - 10 - - - -
16/08:00pm 17.2 WNW 9 11 1011.1 - 0.0 - - 10 - - - -
16/07:30pm 17.2 WNW 9 13 1011.2 - 0.0 - - 10 - - - -
16/07:00pm 17.9 WNW 11 15 1011.3 - 0.0 - - 10 - - - -
16/06:30pm 17.9 W 11 15 1011.3 - 0.0 - - 10 - - - -
16/06:00pm 18.2 W 12 16 1011.5 - 0.0 - - 10 - - - -
16/05:30pm 18.4 W 13 17 1011.8 - 0.0 - - 10 - - - -
16/05:00pm 18.4 WNW 13 16 1012.0 - 0.0 - - 10 - - - -
16/04:30pm 19.0 W 15 19 1012.2 - 0.0 - Partly cloudy 10 - - - -
16/04:00pm 18.5 W 15 18 1012.5 - 0.0 - Partly cloudy 10 - - - -
16/03:30pm 18.7 W 15 19 1012.8 - 0.0 - Partly cloudy 10 - - - -
16/03:00pm 18.9 W 15 20 1013.0 - 0.0 - Mostly clear 10 - - - -
16/02:30pm 19.0 W 14 19 1013.1 - 0.0 - Partly cloudy 10 - - - -
16/02:00pm 19.2 WNW 15 19 1013.6 - 0.0 - Partly cloudy 10 - - - -
16/01:30pm 18.8 W 15 20 1013.4 - 0.0 - Partly cloudy 10 - - - -
16/01:00pm 19.3 W 15 19 1013.8 - 0.0 - Cloudy 10 - - - -
16/12:30pm 18.6 W 16 20 1013.9 - 0.0 - Cloudy 10 - - - -
16/12:00pm 18.3 WNW 15 19 1014.1 - 0.0 - Cloudy 10 - - - -
16/11:30am 17.7 W 16 20 1014.3 - 0.0 - Cloudy 10 - - - -
16/11:00am 17.4 W 16 19 1014.3 - 0.0 - Cloudy 10 - - - -
16/10:30am 17.5 W 17 22 1014.6 - 0.0 - Cloudy 10 - - - -
16/10:00am 16.9 W 15 21 1014.7 - 0.0 - Cloudy 10 - - - -
16/09:30am 16.7 W 15 19 1014.8 - 0.0 - Cloudy 10 - - - -
16/09:00am 16.2 W 15 21 1014.9 - 0.0 - Cloudy 10 - - - -
16/08:30am 16.1 W 16 20 1014.9 - 0.0 - Cloudy 10 - - - -
16/08:00am 15.8 W 15 19 1014.7 - 0.0 - Cloudy 10 - - - -
16/07:30am 15.8 W 17 21 1014.5 - 0.0 - Cloudy 10 - - - -
16/07:00am 15.7 W 17 23 1014.1 - 0.0 - Cloudy 10 - - - -
16/06:30am 15.5 WNW 17 21 1014.0 - 0.0 - Cloudy 10 - - - -
16/06:00am 15.5 W 17 20 1013.6 - 0.0 - Cloudy 10 - - - -
16/05:30am 15.4 W 18 22 1013.4 - 0.0 - Cloudy 10 - - - -
16/05:00am 15.3 W 20 24 1013.4 - 0.0 - Cloudy 10 - - - -
16/04:30am 15.3 W 19 23 1013.1 - 0.0 - Cloudy 10 - - - -
16/04:00am 15.1 W 20 26 1013.1 - 0.0 - Cloudy 10 - - - -
16/03:30am 15.2 W 20 28 1013.4 - 0.0 - Cloudy 10 - - - -
16/03:00am 15.3 W 19 26 1013.5 - 0.0 - Cloudy 10 - - - -
16/02:30am 15.5 W 20 23 1013.8 - 0.0 - Cloudy 10 - - - -
16/02:00am 15.5 WSW 20 24 1014.1 - 0.0 - Cloudy 10 - - - -
16/01:30am 15.4 W 19 27 1014.2 - 0.0 - Cloudy 10 - - - -
16/01:00am 15.4 W 19 25 1014.5 - 0.0 - Cloudy 10 - - - -
16/12:30am 15.4 W 18 22 1014.8 - 0.0 - Partly cloudy 10 - - - -
16/12:00am 15.4 W 20 25 1014.9 - 0.0 - Mostly cloudy 10 - - - -
 
Date/Time
EDT
Temp
°C
Wind Pressure Rain since
9am
mm
Weather Cloud Vis
km
Sea
Height
m
Swell
Dir  Spd
kts
Gust
kts
hPa Trend Height
m
Period
s
Dir
15/11:30pm 15.6 W 19 22 1015.0 - 0.0 - Partly cloudy 10 - - - -
15/11:00pm 15.5 W 20 27 1015.1 - 0.0 - Partly cloudy 10 - - - -
15/10:30pm 15.6 W 19 22 1015.3 - 0.0 - Partly cloudy 10 - - - -
15/10:00pm 15.8 W 17 22 1015.3 - 0.0 - Cloudy 10 - - - -
15/09:30pm 15.6 W 17 22 1015.1 - 0.0 - Partly cloudy 10 - - - -
15/09:00pm 15.6 W 18 23 1015.0 - 0.0 - Mostly clear 10 - - - -
15/08:30pm 15.8 W 20 27 1015.1 - 0.0 - Partly cloudy 10 - - - -
15/08:00pm 16.3 W 20 26 1015.0 - 0.0 - Partly cloudy 10 - - - -
15/07:30pm 16.4 W 20 26 1014.8 - 0.0 - Partly cloudy 10 - - - -
15/07:00pm 16.7 W 23 29 1014.5 - 0.0 - Partly cloudy 10 - - - -
15/06:30pm 17.1 W 24 29 1014.5 - 0.0 - Partly cloudy 10 - - - -
15/06:00pm 17.1 W 22 27 1014.6 - 0.0 - Mostly cloudy 10 - - - -
15/05:30pm 16.9 W 24 30 1014.9 - 0.0 - Partly cloudy 10 - - - -
15/05:00pm 17.1 W 23 29 1014.8 - 0.0 - Cloudy 10 - - - -
15/04:30pm 17.4 W 24 29 1014.9 - 0.0 - Cloudy 10 - - - -
15/04:00pm 17.4 W 21 28 1015.2 - 0.0 - Cloudy 10 - - - -
15/03:30pm 17.3 W 23 29 1015.5 - 0.0 - Cloudy 10 - - - -
15/03:00pm 17.6 W 23 28 1015.5 - 0.0 - Cloudy 10 - - - -
15/02:30pm 18.2 W 23 29 1015.5 - 0.0 - Partly cloudy 10 - - - -
15/02:00pm 17.5 W 22 27 1015.7 - 0.0 - Cloudy 10 - - - -
15/01:30pm 18.1 W 23 27 1015.6 - 0.0 - Cloudy 10 - - - -
15/01:00pm 17.3 W 21 26 1015.8 - 0.0 - Partly cloudy 10 - - - -
15/12:30pm 17.6 WSW 22 30 1015.8 - 0.0 - Partly cloudy 10 - - - -
15/12:00pm 16.7 W 21 27 1015.9 - 0.0 - Cloudy 10 - - - -
15/11:30am 16.6 W 21 26 1015.7 - 0.0 - Cloudy 10 - - - -
15/11:00am 16.6 W 21 28 1015.6 - 0.0 - Cloudy 10 - - - -
15/10:30am 16.4 WSW 23 27 1015.4 - 0.0 - Partly cloudy 10 - - - -
15/10:00am 16.5 WSW 24 28 1015.3 - 0.0 - Cloudy 10 - - - -
15/09:30am 15.9 WSW 21 29 1015.3 - 0.0 - Partly cloudy 10 - - - -
15/09:00am 15.6 W 22 28 1015.0 - 0.2 - Mostly cloudy 10 - - - -
15/08:30am 15.3 W 22 29 1014.7 - 0.2 - Cloudy 10 - - - -
15/08:00am 15.6 WSW 23 28 1014.5 - 0.2 - Cloudy 10 - - - -
15/07:30am 14.7 W 22 28 1014.0 - 0.2 - Cloudy 10 - - - -
15/07:00am 14.6 WSW 22 27 1013.7 - 0.2 - Cloudy 10 - - - -
15/06:30am 14.2 WSW 21 26 1013.5 - 0.2 - Partly cloudy 10 - - - -
15/06:00am 14.0 WSW 24 29 1012.9 - 0.2 - Partly cloudy 10 - - - -
15/05:30am 14.2 WSW 23 29 1012.6 - 0.2 - Partly cloudy 10 - - - -
15/05:00am 14.5 WSW 22 27 1012.1 - 0.2 - Cloudy 10 - - - -
15/04:30am 14.1 WSW 27 33 1011.6 - 0.2 - Partly cloudy 10 - - - -
15/04:00am 14.3 WSW 26 31 1011.5 - 0.2 - Cloudy 10 - - - -
15/03:30am 14.3 W 26 32 1011.2 - 0.2 - Partly cloudy 10 - - - -
15/03:00am 14.3 WSW 27 33 1011.2 - 0.2 - Mostly clear 10 - - - -
15/02:30am 14.3 WSW 29 37 1011.1 - 0.2 - Partly cloudy 10 - - - -
15/02:00am 14.3 WSW 29 34 1010.8 - 0.2 - Partly cloudy 10 - - - -
15/01:30am 14.3 WSW 29 37 1011.2 - 0.2 - - 10 - - - -
15/01:00am 14.4 WSW 27 33 1011.1 - 0.2 - Partly cloudy 10 - - - -
15/12:30am 14.7 WSW 29 35 1010.9 - 0.2 - Partly cloudy 10 - - - -
15/12:00am 14.7 WSW 29 37 1010.3 - 0.2 - Partly cloudy 10 - - - -
 
Date/Time
EDT
Temp
°C
Wind Pressure Rain since
9am
mm
Weather Cloud Vis
km
Sea
Height
m
Swell
Dir  Spd
kts
Gust
kts
hPa Trend Height
m
Period
s
Dir
14/11:30pm 15.0 W 30 37 1009.8 - 0.2 - Partly cloudy 10 - - - -
14/11:00pm 15.1 WSW 29 38 1010.1 - 0.2 - Partly cloudy 10 - - - -
14/10:30pm 15.0 WSW 31 39 1009.6 - 0.2 - Partly cloudy 10 - - - -
14/10:07pm 15.3 W 29 39 1009.1 - 0.2 - Partly cloudy 10 - - - -

Other Formats:

Comma delimited format used in spreadsheet applications
http://www.bom.gov.au/fwo/IDV60701/IDV60701.94980.axf

JavaScript Object Notation format (JSON) in row-major order
http://www.bom.gov.au/fwo/IDV60701/IDV60701.94980.json